createdAt,value
2022-12-20T00:01:28.940Z,31.90
2022-12-20T00:03:57.817Z,31.35
2022-12-20T00:06:26.189Z,30.67
2022-12-20T00:08:58.350Z,30.50
2022-12-20T00:11:26.035Z,29.40
2022-12-20T00:13:53.715Z,29.35
2022-12-20T00:16:23.879Z,29.63
2022-12-20T00:18:56.603Z,30.33
2022-12-20T00:21:24.004Z,30.40
2022-12-20T00:23:52.929Z,32.10
2022-12-20T00:26:22.210Z,30.33
2022-12-20T00:28:49.114Z,32.47
2022-12-20T00:31:18.913Z,31.90
2022-12-20T00:33:47.877Z,31.38
2022-12-20T00:36:15.612Z,32.15
2022-12-20T00:38:48.589Z,32.03
2022-12-20T00:41:17.966Z,30.40
2022-12-20T00:43:45.033Z,31.15
2022-12-20T00:46:13.467Z,32.63
2022-12-20T00:48:40.751Z,32.88
2022-12-20T00:51:14.449Z,32.35
2022-12-20T00:53:42.413Z,32.08
2022-12-20T00:56:10.605Z,30.80
2022-12-20T00:58:39.795Z,31.13
2022-12-20T01:01:14.690Z,30.25
2022-12-20T01:03:41.617Z,31.08
2022-12-20T01:06:09.903Z,30.02
2022-12-20T01:08:36.789Z,30.88
2022-12-20T01:11:20.729Z,30.60
2022-12-20T01:13:50.873Z,31.20
2022-12-20T01:16:28.115Z,29.75
2022-12-20T01:18:55.036Z,30.60
2022-12-20T01:21:23.600Z,30.90
2022-12-20T01:23:50.481Z,30.52
2022-12-20T01:26:20.356Z,29.95
2022-12-20T01:28:48.943Z,30.95
2022-12-20T01:31:19.809Z,29.90
2022-12-20T01:33:48.550Z,32.63
2022-12-20T01:36:18.203Z,31.48
2022-12-20T01:38:45.134Z,31.70
2022-12-20T01:41:19.905Z,31.48
2022-12-20T01:43:57.621Z,30.98
2022-12-20T01:46:29.981Z,32.05
2022-12-20T01:51:30.083Z,31.67
2022-12-20T01:54:26.617Z,31.88
2022-12-20T01:56:59.791Z,33.53
2022-12-20T01:59:28.661Z,33.35
2022-12-20T02:01:59.204Z,33.00
2022-12-20T02:04:27.636Z,32.55
2022-12-20T02:06:54.449Z,32.50
2022-12-20T02:09:21.991Z,31.58
2022-12-20T02:11:57.613Z,31.67
2022-12-20T02:15:00.037Z,33.25
2022-12-20T02:17:46.481Z,33.83
2022-12-20T02:20:43.964Z,34.20
2022-12-20T02:23:29.457Z,33.83
2022-12-20T02:26:36.059Z,32.20
2022-12-20T02:29:22.623Z,32.33
2022-12-20T02:32:39.746Z,32.28
2022-12-20T02:35:09.381Z,32.97
2022-12-20T02:37:36.303Z,33.40
2022-12-20T02:40:06.142Z,34.13
2022-12-20T02:42:34.515Z,33.13
2022-12-20T02:45:17.060Z,33.42
2022-12-20T02:50:30.920Z,31.88
2022-12-20T02:52:59.418Z,33.53
2022-12-20T02:55:58.283Z,33.97
2022-12-20T02:58:33.701Z,32.72
2022-12-20T03:01:06.266Z,33.42
2022-12-20T03:03:34.763Z,33.58
2022-12-20T03:06:02.136Z,35.70
2022-12-20T03:08:29.260Z,33.97
2022-12-20T03:10:56.231Z,34.90
2022-12-20T03:13:24.824Z,34.35
2022-12-20T03:15:51.768Z,34.50
2022-12-20T03:18:18.628Z,35.92
2022-12-20T03:20:45.946Z,36.22
2022-12-20T03:23:13.038Z,36.33
2022-12-20T03:25:39.889Z,38.60
2022-12-20T03:28:06.660Z,36.65
2022-12-20T03:30:33.695Z,36.40
2022-12-20T03:33:01.097Z,37.33
2022-12-20T03:35:27.931Z,37.15
2022-12-20T03:37:55.765Z,35.97
2022-12-20T03:40:23.015Z,37.50
2022-12-20T03:42:50.052Z,34.83
2022-12-20T03:45:17.392Z,36.33
2022-12-20T03:47:44.569Z,37.30
2022-12-20T03:50:12.049Z,34.92
2022-12-20T03:52:38.902Z,34.65
2022-12-20T03:55:06.502Z,34.10
2022-12-20T03:57:33.257Z,35.42
2022-12-20T04:00:00.106Z,34.83
2022-12-20T04:02:27.182Z,36.13
2022-12-20T04:04:54.257Z,33.25
2022-12-20T04:07:21.034Z,33.78
2022-12-20T04:09:47.856Z,36.00
2022-12-20T04:12:14.779Z,36.15
2022-12-20T04:14:41.655Z,35.97
2022-12-20T04:17:08.639Z,35.65
2022-12-20T04:19:35.650Z,35.78
2022-12-20T04:22:05.701Z,35.53
2022-12-20T04:24:33.169Z,34.97
2022-12-20T04:27:00.136Z,36.22
2022-12-20T04:29:28.137Z,34.75
2022-12-20T04:31:55.235Z,35.30
2022-12-20T04:34:22.215Z,35.35
2022-12-20T04:36:49.227Z,36.35
2022-12-20T04:39:16.032Z,35.58
2022-12-20T04:41:43.199Z,36.13
2022-12-20T04:44:10.062Z,33.30
2022-12-20T04:46:36.951Z,35.45
2022-12-20T04:49:04.160Z,34.60
2022-12-20T04:51:31.665Z,35.90
2022-12-20T04:53:58.511Z,35.97
2022-12-20T04:56:29.551Z,36.72
2022-12-20T04:58:58.854Z,36.17
2022-12-20T05:01:26.189Z,34.05
2022-12-20T05:03:53.467Z,35.60
2022-12-20T05:06:20.409Z,34.03
2022-12-20T05:08:47.657Z,35.20
2022-12-20T05:11:15.121Z,34.58
2022-12-20T05:13:42.500Z,35.10
2022-12-20T05:16:09.402Z,35.30
2022-12-20T05:18:36.352Z,34.78
2022-12-20T05:21:22.306Z,35.83
2022-12-20T05:24:07.777Z,36.70
2022-12-20T05:26:37.854Z,35.50
2022-12-20T05:29:06.200Z,35.45
2022-12-20T05:31:33.358Z,34.58
2022-12-20T05:34:00.790Z,34.70
2022-12-20T05:36:28.127Z,35.80
2022-12-20T05:39:00.143Z,36.03
2022-12-20T05:41:30.670Z,35.75
2022-12-20T05:43:57.690Z,36.17
2022-12-20T05:46:24.564Z,35.67
2022-12-20T05:48:51.397Z,34.45
2022-12-20T05:51:18.364Z,34.75
2022-12-20T05:53:45.391Z,36.40
2022-12-20T05:56:12.267Z,35.30
2022-12-20T05:58:40.512Z,35.50
2022-12-20T06:01:08.432Z,33.97
2022-12-20T06:03:35.385Z,34.63
2022-12-20T06:06:02.373Z,34.13
2022-12-20T06:08:29.325Z,35.83
2022-12-20T06:10:57.404Z,34.35
2022-12-20T06:13:24.367Z,34.20
2022-12-20T06:15:51.312Z,33.88
2022-12-20T06:18:18.295Z,34.42
2022-12-20T06:20:53.705Z,33.72
2022-12-20T06:23:20.609Z,35.42
2022-12-20T06:25:47.540Z,35.22
2022-12-20T06:28:16.377Z,33.17
2022-12-20T06:30:43.286Z,33.13
2022-12-20T06:33:10.154Z,35.20
2022-12-20T06:35:37.032Z,39.58
2022-12-20T06:38:05.211Z,36.90
2022-12-20T06:40:32.047Z,35.40
2022-12-20T06:42:58.831Z,31.85
2022-12-20T06:45:25.732Z,33.65
2022-12-20T06:47:52.707Z,37.17
2022-12-20T06:50:19.700Z,33.25
2022-12-20T06:52:46.947Z,33.45
2022-12-20T06:55:13.995Z,35.78
2022-12-20T06:57:40.930Z,34.58
2022-12-20T07:00:08.671Z,34.47
2022-12-20T07:02:35.805Z,35.63
2022-12-20T07:05:12.865Z,35.45
2022-12-20T07:07:57.664Z,35.25
2022-12-20T07:10:25.437Z,35.50
2022-12-20T07:12:53.251Z,35.22
2022-12-20T07:15:22.267Z,37.28
2022-12-20T07:17:51.783Z,35.10
2022-12-20T07:20:26.423Z,34.95
2022-12-20T07:22:53.330Z,38.03
2022-12-20T07:25:20.646Z,37.33
2022-12-20T07:27:50.058Z,35.83
2022-12-20T07:30:18.655Z,36.22
2022-12-20T07:32:46.014Z,35.63
2022-12-20T07:35:16.498Z,36.20
2022-12-20T07:37:44.664Z,36.10
2022-12-20T07:40:12.394Z,36.10
2022-12-20T07:42:46.147Z,40.00
2022-12-20T07:45:15.724Z,37.20
2022-12-20T07:47:43.958Z,36.22
2022-12-20T07:50:12.027Z,32.60
2022-12-20T07:52:43.029Z,35.35
2022-12-20T07:55:11.639Z,39.15
2022-12-20T07:57:49.182Z,37.47
2022-12-20T08:00:18.756Z,34.92
2022-12-20T08:03:18.207Z,34.75
2022-12-20T08:05:51.340Z,31.83
2022-12-20T08:08:18.584Z,32.25
2022-12-20T08:10:46.638Z,36.63
2022-12-20T08:13:13.536Z,35.05
2022-12-20T08:15:40.402Z,32.72
2022-12-20T08:18:07.400Z,32.78
2022-12-20T08:20:34.343Z,34.33
2022-12-20T08:23:03.949Z,32.38
2022-12-20T08:25:34.712Z,33.42
2022-12-20T08:28:08.069Z,33.60
2022-12-20T08:30:35.274Z,33.15
2022-12-20T08:33:02.286Z,34.28
2022-12-20T08:35:29.570Z,33.72
2022-12-20T08:37:56.977Z,34.35
2022-12-20T08:40:24.585Z,34.42
2022-12-20T08:42:56.049Z,35.17
2022-12-20T08:45:32.516Z,34.15
2022-12-20T08:48:00.991Z,36.00
2022-12-20T08:50:29.316Z,34.65
2022-12-20T08:52:56.209Z,35.05
2022-12-20T08:55:27.845Z,35.97
2022-12-20T08:57:57.033Z,36.33
2022-12-20T09:00:25.352Z,36.15
2022-12-20T09:02:59.874Z,36.33
2022-12-20T09:05:28.521Z,36.65
2022-12-20T09:07:59.298Z,35.05
2022-12-20T09:10:26.283Z,36.42
2022-12-20T09:12:53.139Z,36.97
2022-12-20T09:15:20.086Z,34.58
2022-12-20T09:17:47.364Z,36.38
2022-12-20T09:20:17.298Z,35.53
2022-12-20T09:22:44.657Z,40.80
2022-12-20T09:25:12.714Z,38.20
2022-12-20T09:27:39.954Z,36.83
2022-12-20T09:30:07.572Z,36.28
2022-12-20T09:32:37.549Z,37.25
2022-12-20T09:35:09.287Z,37.25
2022-12-20T09:37:36.578Z,36.75
2022-12-20T09:40:14.734Z,36.03
2022-12-20T09:42:45.997Z,34.80
2022-12-20T09:45:29.058Z,35.55
2022-12-20T09:48:03.005Z,34.53
2022-12-20T09:51:01.017Z,34.47
2022-12-20T09:53:39.797Z,35.47
2022-12-20T09:56:35.861Z,33.75
2022-12-20T09:59:26.690Z,48.88
2022-12-20T10:02:07.942Z,32.80
2022-12-20T10:04:48.245Z,35.13
2022-12-20T10:07:46.812Z,33.28
2022-12-20T10:10:54.212Z,33.67
2022-12-20T10:13:29.944Z,34.17
2022-12-20T10:16:33.796Z,33.80
2022-12-20T10:19:13.493Z,33.47
2022-12-20T10:22:18.989Z,33.40
2022-12-20T10:25:00.153Z,42.50
2022-12-20T10:27:57.094Z,43.83
2022-12-20T10:30:27.244Z,42.40
2022-12-20T10:32:57.348Z,49.10
2022-12-20T10:35:39.276Z,37.00
2022-12-20T10:38:14.299Z,34.10
2022-12-20T10:43:45.375Z,29.85
2022-12-20T10:46:18.641Z,29.88
2022-12-20T10:48:49.315Z,30.10
2022-12-20T10:51:20.322Z,30.77
2022-12-20T10:54:01.335Z,32.17
2022-12-20T10:56:40.289Z,33.72
2022-12-20T10:59:32.421Z,30.45
2022-12-20T11:01:59.750Z,37.83
2022-12-20T11:04:39.069Z,31.13
2022-12-20T11:07:28.144Z,30.63
2022-12-20T11:09:57.283Z,30.20
2022-12-20T11:12:24.572Z,30.67
2022-12-20T11:15:32.804Z,30.00
2022-12-20T11:18:29.713Z,28.80
2022-12-20T11:21:17.879Z,30.50
2022-12-20T11:24:00.869Z,31.55
2022-12-20T11:26:57.829Z,31.42
2022-12-20T11:29:41.376Z,32.60
2022-12-20T11:32:43.080Z,31.58
2022-12-20T11:35:26.640Z,33.75
2022-12-20T11:38:10.683Z,32.83
2022-12-20T11:40:56.004Z,34.35
2022-12-20T11:43:54.177Z,33.28
2022-12-20T11:46:37.752Z,31.73
2022-12-20T11:52:00.030Z,29.75
2022-12-20T11:54:29.191Z,30.35
2022-12-20T11:57:04.676Z,30.20
2022-12-20T11:59:35.031Z,30.10
2022-12-20T12:02:26.716Z,31.63
2022-12-20T12:05:15.733Z,22.73
2022-12-20T12:07:47.139Z,30.63
2022-12-20T12:13:21.554Z,31.88
2022-12-20T12:16:01.956Z,29.75
2022-12-20T12:18:31.532Z,29.15
2022-12-20T12:21:17.957Z,28.70
2022-12-20T12:23:44.828Z,28.02
2022-12-20T12:26:26.069Z,27.33
2022-12-20T12:29:09.044Z,26.33
2022-12-20T12:31:46.854Z,27.27
2022-12-20T12:34:35.162Z,25.05
2022-12-20T12:37:38.005Z,24.33
2022-12-20T12:42:37.826Z,24.85
2022-12-20T12:45:21.012Z,24.27
2022-12-20T12:47:59.672Z,24.75
2022-12-20T12:50:38.056Z,23.75
2022-12-20T12:53:17.221Z,23.77
2022-12-20T12:55:47.587Z,24.70
2022-12-20T12:58:23.611Z,23.27
2022-12-20T13:00:54.932Z,24.23
2022-12-20T13:03:46.097Z,21.97
2022-12-20T13:06:25.362Z,42.17
2022-12-20T13:09:04.166Z,22.38
2022-12-20T13:11:47.355Z,21.52
2022-12-20T13:14:19.207Z,22.15
2022-12-20T13:17:12.118Z,21.05
2022-12-20T13:19:39.484Z,20.45
2022-12-20T13:22:06.305Z,21.48
2022-12-20T13:24:58.127Z,20.52
2022-12-20T13:27:29.637Z,23.60
2022-12-20T13:29:58.575Z,21.42
2022-12-20T13:32:47.212Z,19.88
2022-12-20T13:35:26.824Z,22.40
2022-12-20T13:38:25.945Z,22.42
2022-12-20T13:43:46.087Z,22.30
2022-12-20T13:46:25.365Z,22.33
2022-12-20T13:49:12.101Z,21.77
2022-12-20T13:51:39.619Z,21.50
2022-12-20T13:54:19.327Z,22.08
2022-12-20T13:56:51.723Z,22.95
2022-12-20T13:59:31.924Z,22.38
2022-12-20T14:02:11.109Z,21.42
2022-12-20T14:04:44.542Z,21.40
2022-12-20T14:07:17.776Z,22.17
2022-12-20T14:09:46.748Z,21.40
2022-12-20T14:12:23.258Z,22.23
2022-12-20T14:14:56.576Z,20.90
2022-12-20T14:17:29.716Z,20.95
2022-12-20T14:20:23.227Z,19.42
2022-12-20T14:23:04.691Z,21.95
2022-12-20T14:28:27.158Z,21.92
2022-12-20T14:30:56.586Z,27.10
2022-12-20T14:33:28.223Z,25.95
2022-12-20T14:35:55.273Z,24.13
2022-12-20T14:38:33.370Z,26.13
2022-12-20T14:41:32.176Z,23.80
2022-12-20T14:44:15.046Z,23.33
2022-12-20T14:46:51.574Z,21.90
2022-12-20T14:49:37.295Z,22.80
2022-12-20T14:52:30.516Z,20.45
2022-12-20T14:55:09.361Z,20.77
2022-12-20T14:57:37.080Z,21.90
2022-12-20T15:00:19.262Z,22.98
2022-12-20T15:02:51.787Z,21.70
2022-12-20T15:05:39.866Z,26.55
2022-12-20T15:08:24.305Z,22.23
2022-12-20T15:10:59.236Z,22.55
2022-12-20T15:13:35.137Z,21.52
2022-12-20T15:16:05.133Z,26.33
2022-12-20T15:18:33.689Z,22.88
2022-12-20T15:21:21.041Z,23.17
2022-12-20T15:23:53.303Z,22.40
2022-12-20T15:26:24.141Z,21.98
2022-12-20T15:28:52.318Z,22.95
2022-12-20T15:31:22.999Z,21.67
2022-12-20T15:34:00.682Z,23.08
2022-12-20T15:36:30.520Z,22.17
2022-12-20T15:39:14.922Z,22.77
2022-12-20T15:41:49.728Z,22.55
2022-12-20T15:44:27.811Z,26.00
2022-12-20T15:49:36.466Z,25.13
2022-12-20T15:52:13.295Z,68.68
2022-12-20T15:57:23.031Z,23.67
2022-12-20T16:16:23.951Z,22.80
2022-12-20T16:18:54.184Z,24.70
2022-12-20T16:21:27.920Z,24.98
2022-12-20T16:23:55.505Z,26.40
2022-12-20T16:26:24.545Z,28.65
2022-12-20T16:28:54.401Z,26.90
2022-12-20T16:31:25.933Z,23.55
2022-12-20T16:33:55.013Z,20.77
2022-12-20T16:36:23.597Z,19.90
2022-12-20T16:38:52.324Z,21.27
2022-12-20T16:41:21.557Z,24.30
2022-12-20T16:43:50.909Z,28.25
2022-12-20T16:46:21.511Z,29.77
2022-12-20T16:48:49.277Z,26.33
2022-12-20T16:51:26.755Z,27.35
2022-12-20T16:54:30.236Z,30.33
2022-12-20T16:57:10.135Z,32.13
2022-12-20T16:59:42.007Z,28.38
2022-12-20T17:02:44.087Z,25.63
2022-12-20T17:05:34.905Z,28.00
2022-12-20T17:08:04.272Z,26.60
2022-12-20T17:10:33.664Z,27.00
2022-12-20T17:13:09.558Z,25.83
2022-12-20T17:15:47.461Z,27.00
2022-12-20T17:18:18.708Z,27.15
2022-12-20T17:20:45.864Z,24.33
2022-12-20T17:26:07.799Z,23.73
2022-12-20T17:31:41.191Z,27.50
2022-12-20T17:34:30.838Z,27.30
2022-12-20T17:39:42.397Z,26.15
2022-12-20T17:42:14.636Z,27.08
2022-12-20T17:47:16.305Z,25.35
2022-12-20T17:52:32.907Z,26.65
2022-12-20T17:55:13.945Z,26.52
2022-12-20T18:00:39.329Z,32.63
2022-12-20T18:03:08.049Z,31.38
2022-12-20T18:10:59.857Z,32.88
2022-12-20T18:13:27.036Z,35.08
2022-12-20T18:15:54.032Z,34.28
2022-12-20T18:18:23.406Z,34.75
2022-12-20T18:20:50.394Z,32.10
2022-12-20T18:23:20.585Z,29.23
2022-12-20T18:25:49.087Z,31.25
2022-12-20T18:28:24.387Z,29.30
2022-12-20T18:30:51.987Z,30.02
2022-12-20T18:33:22.783Z,32.67
2022-12-20T18:35:50.958Z,29.55
2022-12-20T18:41:32.629Z,30.00
2022-12-20T18:44:05.891Z,28.88
2022-12-20T18:52:09.823Z,34.65
2022-12-20T18:57:18.251Z,40.88
2022-12-20T18:59:45.447Z,39.83
2022-12-20T19:07:40.292Z,51.67
2022-12-20T19:10:10.058Z,54.92
2022-12-20T19:15:19.458Z,52.92
2022-12-20T19:17:46.821Z,55.97
2022-12-20T19:20:15.171Z,50.63
2022-12-20T19:22:46.277Z,45.88
2022-12-20T19:25:19.977Z,45.55
2022-12-20T19:30:32.311Z,48.25
2022-12-20T19:33:02.279Z,51.33
2022-12-20T19:41:03.245Z,55.80
2022-12-20T19:43:42.186Z,57.25
2022-12-20T19:48:55.111Z,57.55
2022-12-20T19:51:23.299Z,56.53
2022-12-20T19:53:51.905Z,55.58
2022-12-20T19:56:51.980Z,59.75
2022-12-20T19:59:20.094Z,58.53
2022-12-20T20:15:15.244Z,51.85
2022-12-20T20:18:04.146Z,53.72
2022-12-20T20:20:34.439Z,55.45
2022-12-20T20:23:01.300Z,55.50
2022-12-20T20:28:33.990Z,52.97
2022-12-20T20:36:57.693Z,52.10
2022-12-20T20:39:25.286Z,55.70
2022-12-20T20:41:56.662Z,54.40
2022-12-20T20:44:39.370Z,42.37
2022-12-20T20:52:25.162Z,56.65
2022-12-20T20:55:05.040Z,56.45
2022-12-20T20:57:33.668Z,57.45
2022-12-20T21:11:10.159Z,59.38
2022-12-20T21:13:45.600Z,56.33
2022-12-20T21:16:19.441Z,56.55
2022-12-20T21:18:53.507Z,56.72
2022-12-20T21:32:10.404Z,60.95
2022-12-20T21:34:37.405Z,63.97
2022-12-20T21:37:05.575Z,60.22
2022-12-20T21:39:33.384Z,61.08
2022-12-20T21:42:09.445Z,62.63
2022-12-20T21:44:38.414Z,65.47
2022-12-20T21:47:09.305Z,65.70
2022-12-20T21:49:36.555Z,61.10
2022-12-20T21:52:04.266Z,62.83
2022-12-20T21:57:23.756Z,68.10
2022-12-20T22:05:16.884Z,65.45
2022-12-20T22:10:37.487Z,66.82
2022-12-20T22:13:05.267Z,72.25
2022-12-20T22:15:35.542Z,64.95
2022-12-20T22:18:12.083Z,70.13
2022-12-20T22:20:41.539Z,69.40
2022-12-20T22:23:10.995Z,69.55
2022-12-20T22:25:41.295Z,71.07
2022-12-20T22:28:09.423Z,70.45
2022-12-20T22:30:43.148Z,65.57
2022-12-20T22:35:57.376Z,68.70
2022-12-20T22:38:26.472Z,69.20
2022-12-20T22:44:01.011Z,66.75
2022-12-20T22:52:06.909Z,73.30
2022-12-20T22:57:57.951Z,80.78
2022-12-20T23:00:29.701Z,72.47
2022-12-20T23:03:00.526Z,72.77
2022-12-20T23:05:29.672Z,72.25
2022-12-20T23:07:56.667Z,70.55
2022-12-20T23:10:42.217Z,70.28
2022-12-20T23:13:30.506Z,71.45
2022-12-20T23:15:57.432Z,68.90
2022-12-20T23:18:24.649Z,71.07
2022-12-20T23:21:13.136Z,68.45
2022-12-20T23:23:40.085Z,70.75
2022-12-20T23:26:15.852Z,70.30
2022-12-20T23:28:44.449Z,69.03
2022-12-20T23:31:13.847Z,69.82
2022-12-20T23:33:41.468Z,69.30
2022-12-20T23:36:12.605Z,70.10
2022-12-20T23:38:39.894Z,67.68
2022-12-20T23:41:08.832Z,72.75
2022-12-20T23:43:36.926Z,71.22
2022-12-20T23:46:10.601Z,76.30
2022-12-20T23:48:37.608Z,73.75
2022-12-20T23:51:08.848Z,76.32
2022-12-20T23:53:45.715Z,72.20
2022-12-20T23:56:15.792Z,73.35
2022-12-20T23:58:44.881Z,71.15
